Time;durP1;ratioP1;P1;durP2;ratioP2;P2;SDS_P1;SDS_P2;PMS_P1;PMS_P2;Temp;Humidity;BMP_temperature;BMP_pressure;BME280_temperature;BME280_humidity;BME280_pressure;Samples;Min_cycle;Max_cycle;Signal;HPM_P1;HPM_P2
2022/01/24 00:00:15;;;;;;;0.83;0.80;;;6.80;99.90;6.80;103197.00;;;;5067299;28;20565;-64
2022/01/24 00:02:43;;;;;;;2.63;2.53;;;6.70;99.90;7.00;103249.00;;;;5067141;28;20553;-65
2022/01/24 00:05:11;;;;;;;3.93;1.07;;;6.80;99.90;7.30;103258.00;;;;5035086;28;20179;-64
2022/01/24 00:07:37;;;;;;;0.30;0.30;;;6.90;99.90;7.30;103213.00;;;;5067185;28;20171;-64
2022/01/24 00:10:11;;;;;;;1.03;0.83;;;7.00;99.90;7.50;103282.00;;;;5035910;28;20179;-64
2022/01/24 00:12:50;;;;;;;0.37;0.37;;;7.10;99.90;8.00;103269.00;;;;5035020;28;20229;-64
2022/01/24 00:15:35;;;;;;;4.80;4.50;;;7.40;99.90;7.50;103272.00;;;;5064046;28;20186;-63
2022/01/24 00:18:05;;;;;;;0.30;0.30;;;7.20;99.90;6.90;103259.00;;;;5061888;28;20261;-63
2022/01/24 00:28:46;;;;;;;4.03;1.90;;;6.80;99.90;7.20;103208.00;;;;5035143;28;20258;-63
2022/01/24 00:31:12;;;;;;;0.40;0.40;;;6.90;99.90;7.20;103246.00;;;;5034090;28;20682;-64
2022/01/24 00:33:38;;;;;;;0.30;0.30;;;6.90;99.90;7.20;103257.00;;;;5066258;28;20661;-64
2022/01/24 00:36:04;;;;;;;0.30;0.30;;;6.80;99.90;7.30;103244.00;;;;5034939;28;20228;-64
2022/01/24 00:38:32;;;;;;;0.20;0.20;;;6.80;99.90;7.30;103252.00;;;;5035162;28;20167;-64
2022/01/24 00:40:58;;;;;;;0.30;0.30;;;6.80;99.90;7.30;103235.00;;;;5035285;28;20196;-63
2022/01/24 00:43:35;;;;;;;0.50;0.50;;;6.80;99.90;6.70;103250.00;;;;5034103;28;20556;-64
2022/01/24 00:46:07;;;;;;;0.30;0.30;;;6.80;99.90;6.80;103244.00;;;;5063607;28;20214;-64
2022/01/24 00:48:59;;;;;;;0.30;0.30;;;6.70;99.90;6.80;103225.00;;;;5065285;28;20245;-65
2022/01/24 00:56:51;;;;;;;1.17;1.17;;;6.80;99.90;7.10;103253.00;;;;5033012;28;20221;-65
2022/01/24 00:59:17;;;;;;;1.90;1.80;;;6.90;99.90;7.20;103245.00;;;;5050220;28;20254;-65
2022/01/24 01:01:43;;;;;;;1.23;1.23;;;6.90;99.90;7.30;103261.00;;;;5034562;28;20633;-65
2022/01/24 01:04:08;;;;;;;1.83;1.73;;;7.00;99.90;6.90;103249.00;;;;5066705;28;20195;-64
2022/01/24 01:06:34;;;;;;;0.20;0.20;;;6.90;99.90;6.90;103235.00;;;;5066237;28;20206;-65
2022/01/24 01:19:59;;;;;;;4.53;1.80;;;6.70;99.90;7.20;103244.00;;;;5060591;28;20189;-64
2022/01/24 01:22:24;;;;;;;0.50;0.50;;;6.80;99.90;7.50;103259.00;;;;5065182;28;20179;-65
2022/01/24 01:24:53;;;;;;;0.30;0.30;;;6.90;99.90;7.30;103225.00;;;;5034222;28;20229;-64
2022/01/24 01:27:26;;;;;;;0.57;0.57;;;6.90;99.90;7.40;103262.00;;;;5033687;28;20182;-65
2022/01/24 01:29:58;;;;;;;0.90;0.90;;;7.10;99.90;7.00;103257.00;;;;5033810;28;20171;-64
2022/01/24 01:32:42;;;;;;;0.23;0.23;;;6.90;99.90;6.90;103235.00;;;;5062821;28;20213;-65
2022/01/24 01:38:16;;;;;;;0.30;0.30;;;6.60;99.90;7.20;103242.00;;;;5033563;28;20191;-64
2022/01/24 01:57:01;;;;;;;0.83;0.83;;;6.50;99.90;6.50;103269.00;;;;5033281;28;20208;-65
2022/01/24 01:59:27;;;;;;;0.50;0.50;;;6.40;99.90;6.10;103259.00;;;;5065781;28;20206;-64
2022/01/24 02:01:53;;;;;;;1.13;1.13;;;6.20;99.90;6.50;103269.00;;;;5065633;28;20678;-65
2022/01/24 02:04:19;;;;;;;0.30;0.30;;;6.20;99.90;6.90;103267.00;;;;5032973;28;20201;-65
2022/01/24 02:06:45;;;;;;;2.57;1.73;;;6.30;99.90;6.30;103269.00;;;;5031522;28;20638;-65
2022/01/24 02:09:13;;;;;;;0.60;0.60;;;6.30;99.90;6.40;103266.00;;;;5049155;28;20610;-65
2022/01/24 02:11:39;;;;;;;1.30;1.27;;;6.20;99.90;6.60;103276.00;;;;5064327;28;20309;-65
2022/01/24 02:14:14;;;;;;;2.27;1.17;;;6.30;99.90;6.40;103241.00;;;;5064893;28;20183;-65
2022/01/24 02:19:14;;;;;;;1.13;1.03;;;6.10;99.90;6.50;103262.00;;;;5032732;28;20269;-64
2022/01/24 02:21:58;;;;;;;2.63;1.80;;;6.10;99.90;6.20;103218.00;;;;5032135;28;20632;-64
2022/01/24 02:24:25;;;;;;;0.40;0.40;;;6.20;99.90;6.10;103258.00;;;;5059245;28;20205;-64
2022/01/24 02:26:55;;;;;;;0.30;0.30;;;6.10;99.90;6.20;103256.00;;;;5063302;28;20177;-64
2022/01/24 02:30:14;;;;;;;0.40;0.40;;;6.00;99.90;6.30;103263.00;;;;5064148;28;20179;-64
2022/01/24 02:32:13;;;;;;;1.00;0.47;;;6.20;99.90;6.70;103263.00;;;;5027786;28;20231;-65
2022/01/24 02:34:42;;;;;;;1.67;1.57;;;6.20;99.90;6.60;103266.00;;;;5031115;28;20179;-65
2022/01/24 02:37:14;;;;;;;12.40;11.20;;;6.30;99.90;6.80;103261.00;;;;5032350;28;20379;-65
2022/01/24 02:53:20;;;;;;;0.50;0.50;;;6.30;99.90;6.70;103270.00;;;;5032665;28;20693;-65
2022/01/24 02:55:46;;;;;;;0.43;0.43;;;6.30;99.90;6.00;103267.00;;;;5032102;28;20192;-65
2022/01/24 02:58:13;;;;;;;1.17;1.17;;;6.10;99.90;6.10;103260.00;;;;5031883;28;20267;-63
2022/01/24 03:00:39;;;;;;;0.23;0.23;;;5.90;99.90;6.10;103256.00;;;;5032933;28;20268;-64
2022/01/24 03:03:07;;;;;;;0.40;0.40;;;5.90;99.90;6.90;103272.00;;;;5032247;28;20566;-64
2022/01/24 03:05:33;;;;;;;0.73;0.47;;;6.30;99.90;6.60;103258.00;;;;5031238;28;20195;-64
2022/01/24 03:08:00;;;;;;;2.17;1.97;;;6.20;99.90;6.10;103252.00;;;;5031162;28;20190;-64
2022/01/24 03:10:37;;;;;;;0.30;0.30;;;6.10;99.90;6.00;103246.00;;;;5031969;28;20181;-64
2022/01/24 03:15:57;;;;;;;0.60;0.60;;;5.90;99.90;5.90;103241.00;;;;5031535;28;20194;-64
2022/01/24 03:18:23;;;;;;;2.77;2.10;;;5.90;99.90;5.80;103239.00;;;;5032574;28;20544;-64
2022/01/24 03:20:51;;;;;;;0.60;0.53;;;5.80;99.90;6.00;103238.00;;;;5035853;28;20693;-64
2022/01/24 03:23:20;;;;;;;5.53;5.13;;;5.80;99.90;5.90;103238.00;;;;5036000;28;20181;-64
2022/01/24 03:25:47;;;;;;;0.20;0.20;;;5.90;99.90;6.30;103248.00;;;;5034539;28;20220;-64
2022/01/24 03:28:13;;;;;;;0.37;0.37;;;6.00;99.90;6.20;103246.00;;;;5035112;28;20184;-64
2022/01/24 03:30:42;;;;;;;0.30;0.30;;;6.10;99.90;6.30;103235.00;;;;5036150;28;20171;-64
2022/01/24 03:33:10;;;;;;;0.30;0.30;;;6.00;99.90;6.00;103229.00;;;;5035818;28;20249;-64
2022/01/24 03:35:37;;;;;;;0.30;0.30;;;5.90;99.90;6.20;103219.00;;;;5035127;28;20258;-64
2022/01/24 03:38:03;;;;;;;0.30;0.30;;;5.90;99.90;6.50;103196.00;;;;5018665;28;20197;-65
2022/01/24 03:40:30;;;;;;;0.63;0.63;;;5.90;99.90;6.50;103235.00;;;;5036174;28;20217;-65
2022/01/24 03:42:56;;;;;;;0.20;0.20;;;6.00;99.90;6.30;103221.00;;;;5018041;28;20190;-65
2022/01/24 03:46:11;;;;;;;0.53;0.53;;;6.00;99.90;5.90;103161.00;;;;5033836;28;20191;-65
2022/01/24 03:49:08;;;;;;;1.63;1.53;;;5.80;99.90;5.80;103215.00;;;;5029592;28;20197;-64
2022/01/24 03:50:58;;;;;;;0.30;0.30;;;5.80;99.90;5.70;103191.00;;;;5035015;28;20198;-64
2022/01/24 03:53:24;;;;;;;0.50;0.50;;;5.70;99.90;6.00;103212.00;;;;5033790;28;20182;-65
2022/01/24 03:55:50;;;;;;;0.30;0.30;;;5.70;99.90;6.60;103217.00;;;;5035495;28;20311;-64
2022/01/24 03:58:16;;;;;;;1.00;1.00;;;5.90;99.90;6.70;103232.00;;;;5036070;28;20236;-65
2022/01/24 04:00:42;;;;;;;0.30;0.30;;;6.10;99.90;6.70;103231.00;;;;5035267;28;20163;-65
2022/01/24 04:03:07;;;;;;;0.73;0.73;;;6.20;99.90;6.70;103232.00;;;;5035259;28;20237;-65
2022/01/24 04:05:33;;;;;;;0.23;0.23;;;6.20;99.90;7.00;103235.00;;;;5036056;28;20630;-65
2022/01/24 04:07:59;;;;;;;0.40;0.40;;;6.30;99.90;6.30;103229.00;;;;5035624;28;20175;-64
2022/01/24 04:10:25;;;;;;;0.83;0.83;;;6.20;99.90;6.80;103227.00;;;;5035160;28;20635;-64
2022/01/24 04:12:52;;;;;;;0.30;0.30;;;6.20;99.90;6.90;103235.00;;;;5033689;28;20203;-64
2022/01/24 04:15:41;;;;;;;0.30;0.30;;;6.30;99.90;6.80;103218.00;;;;5035106;28;20329;-64
2022/01/24 04:18:29;;;;;;;0.37;0.37;;;6.30;99.90;5.90;103224.00;;;;5034308;28;20188;-64
2022/01/24 04:23:42;;;;;;;1.40;1.40;;;5.70;99.90;5.70;103209.00;;;;5035511;28;20241;-65
2022/01/24 04:26:08;;;;;;;2.23;2.13;;;5.70;99.90;5.90;103203.00;;;;5034772;28;20212;-64
2022/01/24 04:28:34;;;;;;;2.07;2.00;;;5.60;99.90;5.90;103197.00;;;;5033803;28;20211;-64
2022/01/24 04:30:59;;;;;;;0.23;0.23;;;5.70;99.90;5.90;103206.00;;;;5033544;28;20610;-65
2022/01/24 04:33:25;;;;;;;0.20;0.20;;;5.70;99.90;5.60;103196.00;;;;5034868;28;20238;-64
2022/01/24 04:35:51;;;;;;;0.30;0.30;;;5.60;99.90;5.90;103191.00;;;;5034959;28;20181;-64
2022/01/24 04:38:17;;;;;;;0.53;0.53;;;5.70;99.90;5.90;103202.00;;;;5035152;28;20173;-64
2022/01/24 04:40:43;;;;;;;0.20;0.20;;;5.70;99.90;5.40;103198.00;;;;5035040;28;20170;-65
2022/01/24 04:43:32;;;;;;;0.30;0.30;;;5.60;99.90;5.70;103206.00;;;;5034732;28;20187;-65
2022/01/24 04:56:42;;;;;;;0.20;0.20;;;5.40;99.90;6.10;103211.00;;;;5032615;28;20193;-65
2022/01/24 04:59:09;;;;;;;0.23;0.23;;;5.60;99.90;6.50;103225.00;;;;5033736;28;20350;-65
2022/01/24 05:01:35;;;;;;;0.30;0.30;;;5.90;99.90;6.20;103201.00;;;;5034515;28;20268;-65
2022/01/24 05:04:03;;;;;;;0.20;0.20;;;5.90;99.90;6.70;103227.00;;;;5033359;28;20593;-65
2022/01/24 05:06:28;;;;;;;0.30;0.30;;;6.10;99.90;6.70;103212.00;;;;5033038;28;20260;-65
2022/01/24 05:08:54;;;;;;;0.20;0.20;;;6.20;99.90;6.90;103235.00;;;;5033482;28;20277;-65
2022/01/24 05:11:32;;;;;;;0.30;0.30;;;6.30;99.90;6.30;103215.00;;;;5034532;28;20242;-65
2022/01/24 05:24:43;;;;;;;1.03;1.03;;;5.70;99.90;6.40;103235.00;;;;5032798;28;20173;-65
2022/01/24 05:27:09;;;;;;;0.20;0.20;;;5.90;99.90;5.90;103219.00;;;;5032049;28;20180;-65
2022/01/24 05:29:34;;;;;;;1.67;1.17;;;5.90;99.90;6.00;103229.00;;;;5034310;28;20175;-66
2022/01/24 05:32:00;;;;;;;0.73;0.73;;;5.70;99.90;6.10;103210.00;;;;5033816;28;20228;-65
2022/01/24 05:34:26;;;;;;;0.20;0.20;;;5.80;99.90;6.30;103221.00;;;;5032597;28;20232;-65
2022/01/24 05:36:52;;;;;;;0.30;0.30;;;5.80;99.90;6.30;103221.00;;;;5033813;28;20213;-65
2022/01/24 05:39:18;;;;;;;0.20;0.20;;;5.80;99.90;6.40;103229.00;;;;5032578;28;20233;-66
2022/01/24 05:41:43;;;;;;;0.20;0.20;;;5.70;99.90;6.20;103196.00;;;;5031372;28;20270;-66
2022/01/24 05:44:10;;;;;;;0.30;0.30;;;5.70;99.90;5.90;103208.00;;;;5032779;28;20268;-65
2022/01/24 05:46:36;;;;;;;0.20;0.20;;;5.60;99.90;6.70;103215.00;;;;5030744;28;20183;-65
2022/01/24 05:49:02;;;;;;;0.20;0.20;;;5.90;99.90;6.40;103226.00;;;;5033693;28;20179;-65
2022/01/24 05:51:29;;;;;;;0.30;0.30;;;5.80;99.90;6.40;103228.00;;;;5063515;28;20307;-66
2022/01/24 05:53:57;;;;;;;0.30;0.30;;;5.90;99.90;6.40;103224.00;;;;5064385;28;20174;-66
2022/01/24 05:56:23;;;;;;;2.10;2.10;;;5.80;99.90;6.30;103225.00;;;;5065330;28;20226;-66
2022/01/24 05:58:49;;;;;;;0.30;0.30;;;5.80;99.90;6.80;103227.00;;;;5032446;28;20575;-65
2022/01/24 06:01:16;;;;;;;0.30;0.30;;;6.00;99.90;6.40;103212.00;;;;5032670;28;20185;-65
2022/01/24 06:03:41;;;;;;;3.30;0.90;;;5.80;99.90;6.10;103217.00;;;;5032538;28;20627;-65
2022/01/24 06:06:08;;;;;;;0.30;0.30;;;5.80;99.90;6.20;103219.00;;;;5033608;28;20192;-65
2022/01/24 06:08:35;;;;;;;0.20;0.20;;;5.70;99.90;5.90;103215.00;;;;5032810;28;20215;-65
2022/01/24 06:11:01;;;;;;;0.30;0.30;;;5.50;99.90;6.10;103202.00;;;;5033079;28;20183;-65
2022/01/24 06:13:28;;;;;;;0.40;0.40;;;5.50;99.90;5.60;103199.00;;;;5032577;28;20215;-65
2022/01/24 06:15:54;;;;;;;0.73;0.73;;;5.40;99.90;5.80;103195.00;;;;5048327;28;20239;-65
2022/01/24 06:18:20;;;;;;;0.20;0.20;;;5.40;99.90;5.80;103190.00;;;;5032438;28;20279;-66
2022/01/24 06:20:47;;;;;;;0.30;0.30;;;5.30;99.90;5.80;103194.00;;;;5032721;28;20188;-66
2022/01/24 06:23:17;;;;;;;0.30;0.30;;;5.30;99.90;6.00;103146.00;;;;5065218;28;20271;-67
2022/01/24 06:25:43;;;;;;;0.30;0.30;;;5.40;99.90;6.00;103205.00;;;;5064671;28;20666;-66
2022/01/24 06:28:10;;;;;;;0.30;0.30;;;5.40;99.90;5.80;103214.00;;;;5064141;28;20195;-66
2022/01/24 06:30:36;;;;;;;0.30;0.30;;;5.40;99.90;5.90;103212.00;;;;5048586;28;20180;-66
2022/01/24 06:33:03;;;;;;;1.37;1.30;;;5.30;99.90;6.30;103221.00;;;;5033023;28;20231;-65
2022/01/24 06:35:29;;;;;;;0.30;0.30;;;5.50;99.90;6.10;103174.00;;;;5047451;28;20275;-66
2022/01/24 06:37:57;;;;;;;0.40;0.40;;;5.60;99.90;6.10;103221.00;;;;5031849;28;20163;-63
2022/01/24 06:40:26;;;;;;;0.30;0.30;;;5.50;99.90;6.30;103188.00;;;;5031439;28;20176;-65
2022/01/24 06:42:52;;;;;;;0.30;0.30;;;5.70;99.90;6.00;103224.00;;;;5031911;28;20196;-66
2022/01/24 06:45:20;;;;;;;0.30;0.30;;;5.60;99.90;6.00;103224.00;;;;5032528;28;20186;-64
2022/01/24 06:47:52;;;;;;;0.30;0.30;;;5.50;99.90;5.80;103227.00;;;;5030926;28;20645;-65
2022/01/24 06:50:23;;;;;;;0.30;0.30;;;5.50;99.90;5.20;103219.00;;;;5031797;28;20215;-64
2022/01/24 06:52:49;;;;;;;0.30;0.30;;;5.20;99.90;5.00;103154.00;;;;5047516;28;20198;-64
2022/01/24 06:55:15;;;;;;;0.63;0.63;;;5.10;99.90;5.00;103173.00;;;;5036579;28;20742;-64
2022/01/24 06:59:07;;;;;;;0.30;0.30;;;4.90;99.90;5.10;103207.00;;;;5034687;28;20278;-64
2022/01/24 07:01:41;;;;;;;0.47;0.47;;;4.80;99.90;5.20;103210.00;;;;5036056;28;20210;-64
2022/01/24 07:04:07;;;;;;;1.53;1.53;;;4.90;99.90;5.00;103206.00;;;;5036254;28;20189;-64
2022/01/24 07:06:33;;;;;;;0.30;0.30;;;4.90;99.90;4.30;103195.00;;;;5035083;28;20183;-64
2022/01/24 07:08:58;;;;;;;0.30;0.30;;;4.70;99.90;4.60;103199.00;;;;5051877;28;20187;-64
2022/01/24 07:11:26;;;;;;;2.57;1.70;;;4.50;99.90;4.80;103208.00;;;;5035328;28;20262;-65
2022/01/24 07:13:57;;;;;;;0.30;0.30;;;4.60;99.90;4.70;103203.00;;;;5035647;28;20210;-64
2022/01/24 07:16:38;;;;;;;1.07;1.07;;;4.50;99.90;4.80;103210.00;;;;5036342;28;20326;-64
2022/01/24 07:19:11;;;;;;;0.30;0.30;;;4.50;99.90;4.80;103192.00;;;;5035155;28;20654;-64
2022/01/24 07:21:45;;;;;;;0.30;0.30;;;4.40;99.90;4.80;103206.00;;;;5034652;28;20168;-64
2022/01/24 07:24:16;;;;;;;0.30;0.30;;;4.40;99.90;4.40;103205.00;;;;5034906;28;20206;-64
2022/01/24 07:26:49;;;;;;;0.30;0.30;;;4.30;99.90;4.30;103205.00;;;;5051926;28;20183;-64
2022/01/24 07:29:21;;;;;;;0.30;0.30;;;4.10;99.90;4.20;103160.00;;;;5035071;28;20171;-64
2022/01/24 07:31:53;;;;;;;0.30;0.30;;;4.00;99.90;4.30;103207.00;;;;5034058;28;20682;-64
2022/01/24 07:34:21;;;;;;;0.33;0.33;;;4.00;99.90;4.20;103206.00;;;;5036266;28;20193;-65
2022/01/24 07:36:48;;;;;;;0.30;0.30;;;3.90;99.90;4.30;103212.00;;;;5031021;28;20174;-64
2022/01/24 07:39:14;;;;;;;0.30;0.30;;;3.90;99.90;4.10;103222.00;;;;5036275;28;20186;-64
2022/01/24 07:41:46;;;;;;;0.33;0.33;;;3.90;99.90;4.40;103219.00;;;;5034130;28;20191;-63
2022/01/24 07:44:13;;;;;;;0.50;0.50;;;4.00;99.90;4.20;103219.00;;;;5035830;28;20198;-63
2022/01/24 07:46:39;;;;;;;0.30;0.30;;;4.00;99.90;4.50;103226.00;;;;5034475;28;20666;-64
2022/01/24 07:49:08;;;;;;;3.03;2.93;;;4.10;99.90;4.20;103228.00;;;;5034690;28;20189;-64
2022/01/24 07:51:40;;;;;;;0.30;0.30;;;4.00;99.90;4.40;103221.00;;;;5033802;28;20723;-64
2022/01/24 07:54:08;;;;;;;0.87;0.87;;;4.00;99.90;4.40;103226.00;;;;5033746;28;20541;-65
2022/01/24 07:56:34;;;;;;;0.73;0.73;;;4.10;99.90;4.20;103224.00;;;;5034371;28;20222;-65
2022/01/24 07:59:00;;;;;;;0.33;0.33;;;4.00;99.90;4.50;103223.00;;;;5033510;28;20186;-65
2022/01/24 08:01:26;;;;;;;0.40;0.40;;;4.10;99.90;4.80;103219.00;;;;5035686;28;20194;-65
2022/01/24 08:03:52;;;;;;;0.30;0.30;;;4.20;99.90;4.70;103223.00;;;;5034311;28;20186;-65
2022/01/24 08:06:21;;;;;;;0.37;0.37;;;4.30;99.90;4.60;103225.00;;;;5035441;28;20188;-64
2022/01/24 08:08:53;;;;;;;0.40;0.40;;;4.30;99.90;4.40;103228.00;;;;5035848;28;20220;-64
2022/01/24 08:11:20;;;;;;;0.30;0.30;;;4.20;99.90;4.70;103233.00;;;;5033423;28;20184;-64
2022/01/24 08:13:51;;;;;;;0.40;0.40;;;4.30;99.90;4.60;103237.00;;;;5033852;28;20512;-64
2022/01/24 08:16:25;;;;;;;0.30;0.30;;;4.30;99.90;4.90;103233.00;;;;5050548;28;20193;-65
2022/01/24 08:18:59;;;;;;;0.50;0.50;;;4.40;99.90;4.90;103236.00;;;;5034226;28;20544;-64
2022/01/24 08:21:34;;;;;;;0.40;0.40;;;4.50;99.90;5.00;103236.00;;;;5050181;28;20186;-64
2022/01/24 08:24:07;;;;;;;0.30;0.30;;;4.50;99.90;5.20;103244.00;;;;5034917;28;20257;-64
2022/01/24 08:26:33;;;;;;;2.00;1.90;;;4.60;99.90;5.10;103253.00;;;;5035207;28;20185;-65
2022/01/24 08:29:02;;;;;;;0.30;0.30;;;4.70;99.90;5.30;103243.00;;;;5035255;28;20240;-65
2022/01/24 08:31:27;;;;;;;4.83;1.67;;;4.80;99.90;5.30;103235.00;;;;5035122;28;20199;-64
2022/01/24 08:33:59;;;;;;;0.30;0.30;;;5.00;99.90;4.90;103235.00;;;;5034920;28;20179;-64
2022/01/24 08:36:30;;;;;;;0.30;0.30;;;4.80;99.90;4.60;103234.00;;;;5049704;28;20182;-64
2022/01/24 08:39:08;;;;;;;0.30;0.30;;;4.60;99.90;5.20;103238.00;;;;5035361;28;20599;-65
2022/01/24 08:42:10;;;;;;;0.30;0.30;;;4.70;99.90;5.40;103213.00;;;;5034040;28;20199;-62
2022/01/24 08:47:01;;;;;;;0.30;0.30;;;5.20;99.90;6.10;103243.00;;;;5034977;28;20775;-64
2022/01/24 08:49:32;;;;;;;0.20;0.20;;;5.50;99.90;6.00;103252.00;;;;5034154;28;20263;-65
2022/01/24 08:52:04;;;;;;;0.20;0.20;;;5.60;99.90;6.30;103216.00;;;;5015515;28;20203;-65
2022/01/24 08:54:33;;;;;;;0.27;0.27;;;5.70;99.90;7.00;103263.00;;;;5024549;28;20249;-65
2022/01/24 08:57:07;;;;;;;1.00;0.93;;;6.10;99.90;6.90;103272.00;;;;5015029;28;20186;-65
2022/01/24 08:59:39;;;;;;;1.80;1.43;;;6.30;99.90;6.20;103266.00;;;;5015368;28;20162;-65
2022/01/24 09:02:05;;;;;;;0.30;0.30;;;6.10;99.90;6.90;103266.00;;;;5014535;28;20204;-63
2022/01/24 09:04:39;;;;;;;0.93;0.93;;;6.20;99.90;6.70;103226.00;;;;5046764;28;20185;-65
2022/01/24 09:07:11;;;;;;;0.50;0.50;;;6.40;99.90;6.70;103277.00;;;;5059287;28;20204;-64
2022/01/24 09:09:45;;;;;;;0.27;0.27;;;6.40;99.90;6.80;103261.00;;;;5034726;28;20198;-64
2022/01/24 09:12:14;;;;;;;0.30;0.30;;;6.50;99.90;6.40;103272.00;;;;5034120;28;20245;-64
2022/01/24 09:14:51;;;;;;;0.57;0.57;;;6.40;99.90;6.20;103281.00;;;;5033321;28;20178;-65
2022/01/24 09:17:22;;;;;;;2.30;0.77;;;6.10;99.90;6.70;103286.00;;;;5033278;28;20522;-64
2022/01/24 09:19:55;;;;;;;0.83;0.77;;;6.20;99.90;6.40;103275.00;;;;5034192;28;20175;-64
2022/01/24 09:22:29;;;;;;;0.53;0.53;;;6.20;99.90;6.40;103284.00;;;;5034124;28;20188;-65
2022/01/24 09:25:00;;;;;;;0.57;0.57;;;6.20;99.90;6.50;103290.00;;;;5032019;28;20185;-65
2022/01/24 09:27:34;;;;;;;3.33;2.43;;;6.20;99.90;6.70;103289.00;;;;5034041;28;20206;-64
2022/01/24 09:30:11;;;;;;;0.27;0.27;;;6.30;99.90;6.40;103285.00;;;;5034008;28;20189;-65
2022/01/24 09:32:43;;;;;;;1.33;1.33;;;6.20;99.90;6.20;103285.00;;;;5027538;28;20213;-64
2022/01/24 09:35:18;;;;;;;1.70;1.53;;;6.20;99.90;6.20;103287.00;;;;5032765;28;20189;-65
2022/01/24 09:37:50;;;;;;;1.37;1.30;;;6.00;99.90;6.10;103275.00;;;;5032412;28;20236;-66
2022/01/24 09:40:25;;;;;;;2.73;2.00;;;5.90;99.90;6.80;103302.00;;;;5016007;28;20655;-65
2022/01/24 09:42:57;;;;;;;1.60;1.60;;;6.20;99.90;6.70;103290.00;;;;5033092;28;20182;-65
2022/01/24 09:45:26;;;;;;;0.60;0.60;;;6.40;99.90;6.70;103298.00;;;;5032832;28;20247;-65
2022/01/24 09:47:55;;;;;;;2.83;0.87;;;6.30;99.90;6.30;103293.00;;;;5015623;28;20215;-62
2022/01/24 09:50:22;;;;;;;0.40;0.40;;;6.20;99.90;6.80;103250.00;;;;5033347;28;20236;-64
2022/01/24 09:52:53;;;;;;;1.27;1.27;;;6.30;99.90;6.80;103295.00;;;;5031781;28;20606;-60
2022/01/24 09:55:22;;;;;;;3.27;1.33;;;6.30;99.90;6.40;103289.00;;;;5033734;28;20185;-65
2022/01/24 09:57:48;;;;;;;0.80;0.63;;;6.20;99.90;7.10;103285.00;;;;5028322;28;20627;-65
2022/01/24 10:00:22;;;;;;;0.30;0.30;;;6.40;99.90;6.90;103284.00;;;;5020046;28;20196;-65
2022/01/24 10:02:53;;;;;;;0.30;0.30;;;6.60;99.90;6.90;103290.00;;;;5010690;28;20186;-65
2022/01/24 10:05:33;;;;;;;0.70;0.70;;;6.60;99.90;6.60;103266.00;;;;5013409;28;20206;-65
2022/01/24 10:08:05;;;;;;;2.80;2.37;;;6.60;99.90;7.20;103286.00;;;;5026416;28;20297;-64
2022/01/24 10:10:45;;;;;;;0.53;0.53;;;6.70;99.90;7.20;103257.00;;;;5024710;28;20666;-64
2022/01/24 10:19:17;;;;;;;3.50;2.73;;;6.70;99.90;7.50;103270.00;;;;5024232;28;20230;-64
2022/01/24 10:33:27;;;;;;;2.37;1.40;;;6.20;99.90;6.20;103265.00;;;;5062083;28;21094;-63
2022/01/24 10:35:58;;;;;;;1.03;0.60;;;6.30;99.90;6.80;103266.00;;;;5053491;28;20192;-63
2022/01/24 10:38:41;;;;;;;1.47;1.37;;;6.60;99.90;7.00;103273.00;;;;5046837;28;20216;-63
2022/01/24 10:43:41;;;;;;;0.67;0.67;;;6.90;99.90;7.70;103289.00;;;;5053039;28;20194;-63
2022/01/24 10:46:13;;;;;;;1.90;1.23;;;7.20;99.90;7.40;103295.00;;;;5053163;28;20194;-63
2022/01/24 10:48:45;;;;;;;0.20;0.20;;;7.20;99.90;8.10;103291.00;;;;5040131;28;20215;-63
2022/01/24 10:51:22;;;;;;;5.30;4.80;;;7.40;99.90;7.10;103291.00;;;;5053326;28;20328;-63
2022/01/24 10:53:55;;;;;;;2.40;2.20;;;7.40;99.90;8.50;103306.00;;;;5049336;28;20189;-63
2022/01/24 10:56:35;;;;;;;0.63;0.63;;;7.60;99.90;9.10;103315.00;;;;5050959;28;20189;-64
2022/01/24 10:59:16;;;;;;;2.83;2.47;;;8.20;99.90;8.20;103325.00;;;;5047550;28;20182;-64
2022/01/24 11:01:53;;;;;;;0.20;0.20;;;8.50;99.90;9.20;103331.00;;;;5051357;28;20202;-65
2022/01/24 11:04:20;;;;;;;1.03;1.03;;;8.60;99.90;9.90;103342.00;;;;5055919;28;20194;-65
2022/01/24 11:06:58;;;;;;;0.23;0.23;;;9.00;99.90;10.20;103354.00;;;;5041550;28;20223;-65
2022/01/24 11:09:34;;;;;;;0.20;0.20;;;9.40;99.90;9.90;103338.00;;;;5046429;28;20283;-65
2022/01/24 11:12:11;;;;;;;0.20;0.20;;;9.20;99.90;8.10;103329.00;;;;5048007;28;20554;-64
2022/01/24 11:14:42;;;;;;;0.40;0.40;;;8.60;99.90;8.00;103306.00;;;;5073057;28;20654;-64
2022/01/24 11:17:14;;;;;;;1.03;1.03;;;7.80;99.90;9.00;103318.00;;;;5044151;28;20594;-65
2022/01/24 11:19:46;;;;;;;0.20;0.20;;;8.40;99.90;8.00;103307.00;;;;5037909;28;20193;-65
2022/01/24 11:22:25;;;;;;;0.20;0.20;;;8.00;99.90;8.90;103283.00;;;;5034453;28;20192;-64
2022/01/24 11:25:03;;;;;;;0.40;0.40;;;8.40;99.90;8.50;103327.00;;;;5039081;28;20239;-65
2022/01/24 11:27:37;;;;;;;1.43;0.77;;;8.60;99.90;9.10;103327.00;;;;5042102;28;20211;-64
2022/01/24 11:30:15;;;;;;;0.83;0.83;;;8.50;99.90;7.60;103320.00;;;;5038735;28;20645;-65
2022/01/24 11:32:53;;;;;;;0.57;0.57;;;8.20;99.90;9.10;103320.00;;;;5045265;28;20216;-65
2022/01/24 11:35:44;;;;;;;1.37;1.27;;;8.40;99.90;7.90;103311.00;;;;5038347;28;20195;-65
2022/01/24 11:38:42;;;;;;;3.53;1.97;;;8.00;99.90;6.50;103273.00;;;;5036953;28;20520;-63
2022/01/24 11:41:32;;;;;;;0.20;0.20;;;7.10;99.90;8.90;103282.00;;;;5062335;28;20192;-64
2022/01/24 11:44:15;;;;;;;0.30;0.30;;;7.80;99.90;9.50;103306.00;;;;5027297;28;20180;-64
2022/01/24 11:46:56;;;;;;;0.30;0.30;;;8.50;99.90;10.90;103337.00;;;;5026302;28;20199;-64
2022/01/24 11:49:36;;;;;;;1.00;0.83;;;9.50;99.90;9.30;103328.00;;;;5035109;28;20193;-64
2022/01/24 11:52:11;;;;;;;0.57;0.47;;;9.40;99.90;8.20;103314.00;;;;5053978;28;20200;-64
2022/01/24 11:54:54;;;;;;;0.23;0.23;;;8.60;99.90;9.40;103317.00;;;;5027911;28;20172;-64
2022/01/24 11:57:27;;;;;;;0.87;0.87;;;8.80;99.90;10.30;103334.00;;;;5028877;28;20187;-64
2022/01/24 12:00:29;;;;;;;0.70;0.70;;;9.30;99.90;10.70;103339.00;;;;5028511;28;20233;-64
2022/01/24 12:03:04;;;;;;;0.83;0.83;;;9.70;99.90;11.20;103359.00;;;;5029002;28;20219;-64
2022/01/24 12:05:53;;;;;;;1.17;1.17;;;10.20;99.90;11.20;103362.00;;;;5031858;28;20693;-65
2022/01/24 12:08:34;;;;;;;1.30;1.20;;;10.50;99.90;11.10;103315.00;;;;5029634;28;20207;-64
2022/01/24 12:11:28;;;;;;;0.20;0.20;;;10.40;99.90;9.80;103341.00;;;;5029466;28;20177;-64
2022/01/24 12:14:13;;;;;;;1.40;0.80;;;9.90;99.90;10.30;103338.00;;;;5029150;28;20179;-64
2022/01/24 12:16:45;;;;;;;2.23;2.13;;;9.70;99.90;10.30;103342.00;;;;5024200;28;20715;-64
2022/01/24 12:19:31;;;;;;;1.07;1.07;;;9.70;99.90;9.30;103281.00;;;;5027887;28;20246;-63
2022/01/24 12:22:33;;;;;;;2.10;0.70;;;9.40;99.90;8.30;103299.00;;;;5032906;28;20600;-64
2022/01/24 12:25:08;;;;;;;0.37;0.37;;;9.10;99.90;8.50;103280.00;;;;5061002;28;20192;-64
2022/01/24 12:27:34;;;;;;;1.10;1.10;;;8.50;99.90;9.60;103284.00;;;;5028406;28;20223;-64
2022/01/24 12:30:06;;;;;;;2.17;1.33;;;8.80;99.90;10.40;103303.00;;;;5019156;28;20681;-64
2022/01/24 12:32:50;;;;;;;0.60;0.60;;;9.40;99.90;10.10;103321.00;;;;5060317;28;20232;-63
2022/01/24 12:35:30;;;;;;;0.37;0.37;;;9.70;99.90;10.40;103319.00;;;;5026267;28;20211;-64
2022/01/24 12:38:16;;;;;;;0.20;0.20;;;9.60;99.90;9.90;103281.00;;;;5031445;28;20211;-64
2022/01/24 12:40:41;;;;;;;1.17;1.17;;;9.40;99.90;10.00;103316.00;;;;5021572;28;20547;-64
2022/01/24 12:43:18;;;;;;;1.53;1.47;;;9.50;99.90;8.80;103292.00;;;;5025269;28;20197;-64
2022/01/24 12:48:34;;;;;;;1.87;1.80;;;8.80;99.90;8.90;103286.00;;;;5020172;28;20203;-64
2022/01/24 12:51:00;;;;;;;0.30;0.30;;;8.90;99.90;8.40;103272.00;;;;5032796;28;20191;-64
2022/01/24 12:53:25;;;;;;;0.77;0.77;;;8.60;99.90;7.60;103248.00;;;;5023708;28;20181;-65
2022/01/24 12:56:02;;;;;;;1.63;1.53;;;8.20;99.90;8.00;103254.00;;;;5025410;28;20183;-65
2022/01/24 12:58:39;;;;;;;2.60;2.40;;;8.00;99.90;7.40;103220.00;;;;5030865;28;20551;-65
2022/01/24 13:01:27;;;;;;;0.33;0.33;;;7.70;99.90;8.50;103239.00;;;;5032510;28;20202;-64
2022/01/24 13:04:11;;;;;;;5.03;2.30;;;8.10;99.90;9.40;103215.00;;;;5021407;28;20547;-64
2022/01/24 13:06:46;;;;;;;3.97;3.13;;;8.60;99.90;8.80;103213.00;;;;5032969;28;20280;-64
2022/01/24 13:09:25;;;;;;;2.57;2.37;;;8.40;99.90;8.80;103254.00;;;;5032492;28;20269;-64
2022/01/24 13:12:01;;;;;;;0.30;0.30;;;8.40;99.90;9.20;103262.00;;;;5058453;28;20230;-65
2022/01/24 13:14:49;;;;;;;1.87;1.80;;;8.60;99.90;8.00;103242.00;;;;5028043;28;20178;-64